Aviona — A8WA9 — position and weather

sailwx.info

Track history (hours):
 
Tides and Currents Weather Stations Pressure Air Temp Water Temp Dewpoint Dewpoint Depression Visibility Wind Speed Wind Dir Waves Ship Positions

Aviona

Last reported at 2017-Dec-13 16:22 UTC. Time now 2017-Dec-15 13:49 UTC.
Position S 30°35' E 031°02'.

Length 190 m; draft 12.6 m.

Type: Cargo ship. MMSI: 636014706.

Date/timePositionNaut miles runAvg speedWind from/ knotsBaromVisibWave heightAir tempDewpointWater temp
2017-Dec-13 16:22S 30°35' E 031°02'513.4
2017-Dec-13 16:00S 30°32' E 031°06'613.1
2017-Dec-13 15:30S 30°26' E 031°10'713.4
2017-Dec-13 15:00S 30°21' E 031°15'714.0
2017-Dec-13 14:30S 30°16' E 031°20'714.1
2017-Dec-13 14:00S 30°10' E 031°25'714.2
2017-Dec-13 13:30S 30°05' E 031°30'713.8
2017-Dec-13 13:00S 29°59' E 031°35'713.5
2017-Dec-13 12:30S 29°53' E 031°39'713.4
2017-Dec-13 12:00S 29°48' E 031°43'713.2
2017-Dec-13 11:30S 29°43' E 031°49'613.0
2017-Dec-13 11:00S 29°38' E 031°53'  
Track history (hours):
 
Tides and Currents Weather Stations Pressure Air Temp Water Temp Dewpoint Dewpoint Depression Visibility Wind Speed Wind Dir Waves Ship Positions

Aviona

Last reported at 2017-Dec-13 16:22 UTC. Time now 2017-Dec-15 13:49 UTC.
Position S 30°35' E 031°02'.

Length 190 m; draft 12.6 m.

Type: Cargo ship. MMSI: 636014706.

Date/timePositionNaut miles runAvg speedWind from/ knotsBaromVisibWave heightAir tempDewpointWater temp
2017-Dec-13 16:22S 30°35' E 031°02'513.4
2017-Dec-13 16:00S 30°32' E 031°06'613.1
2017-Dec-13 15:30S 30°26' E 031°10'713.4
2017-Dec-13 15:00S 30°21' E 031°15'714.0
2017-Dec-13 14:30S 30°16' E 031°20'714.1
2017-Dec-13 14:00S 30°10' E 031°25'714.2
2017-Dec-13 13:30S 30°05' E 031°30'713.8
2017-Dec-13 13:00S 29°59' E 031°35'713.5
2017-Dec-13 12:30S 29°53' E 031°39'713.4
2017-Dec-13 12:00S 29°48' E 031°43'713.2
2017-Dec-13 11:30S 29°43' E 031°49'613.0
2017-Dec-13 11:00S 29°38' E 031°53'  

Dump ship's entire track history